createdAt,value
2019-03-23T00:00:09.087Z,16.03
2019-03-23T00:02:38.669Z,26.03
2019-03-23T00:05:08.367Z,16.50
2019-03-23T00:07:37.858Z,19.20
2019-03-23T00:10:08.090Z,15.67
2019-03-23T00:12:38.690Z,17.57
2019-03-23T00:15:08.294Z,16.07
2019-03-23T00:17:37.797Z,17.13
2019-03-23T00:20:07.809Z,15.93
2019-03-23T00:22:37.501Z,14.40
2019-03-23T00:25:07.250Z,16.47
2019-03-23T00:27:37.248Z,12.27
2019-03-23T00:30:09.154Z,13.77
2019-03-23T00:32:39.006Z,11.80
2019-03-23T00:35:09.496Z,12.33
2019-03-23T00:37:39.002Z,11.20
2019-03-23T00:40:08.695Z,17.13
2019-03-23T00:42:38.882Z,8.97
2019-03-23T00:45:08.952Z,11.53
2019-03-23T00:47:38.452Z,13.23
2019-03-23T00:50:08.311Z,10.43
2019-03-23T00:52:37.814Z,13.13
2019-03-23T00:55:07.961Z,9.57
2019-03-23T00:57:38.050Z,10.30
2019-03-23T01:00:09.093Z,10.20
2019-03-23T01:02:38.630Z,12.07
2019-03-23T01:05:08.748Z,8.17
2019-03-23T01:07:38.331Z,8.47
2019-03-23T01:10:08.832Z,10.07
2019-03-23T01:12:39.069Z,9.90
2019-03-23T01:15:09.193Z,9.60
2019-03-23T01:17:38.787Z,9.07
2019-03-23T01:20:09.432Z,9.43
2019-03-23T01:22:38.937Z,7.43
2019-03-23T01:25:08.530Z,9.10
2019-03-23T01:27:38.126Z,7.33
2019-03-23T01:30:09.223Z,8.17
2019-03-23T01:32:39.098Z,9.10
2019-03-23T01:35:09.233Z,8.30
2019-03-23T01:37:38.742Z,10.60
2019-03-23T01:40:08.338Z,8.20
2019-03-23T01:42:39.230Z,7.27
2019-03-23T01:45:09.125Z,9.17
2019-03-23T01:47:38.638Z,6.83
2019-03-23T01:50:09.002Z,6.83
2019-03-23T01:52:38.577Z,6.90
2019-03-23T01:55:09.166Z,6.70
2019-03-23T01:57:38.690Z,7.63
2019-03-23T02:00:08.497Z,8.90
2019-03-23T02:02:38.082Z,6.70
2019-03-23T02:05:08.819Z,7.40
2019-03-23T02:07:38.322Z,9.50
2019-03-23T02:10:09.142Z,6.87
2019-03-23T02:12:39.449Z,7.50
2019-03-23T02:15:08.979Z,7.57
2019-03-23T02:17:38.563Z,8.73
2019-03-23T02:20:09.519Z,7.87
2019-03-23T02:22:39.259Z,7.27
2019-03-23T02:25:08.839Z,6.23
2019-03-23T02:27:38.358Z,5.87
2019-03-23T02:30:07.979Z,6.33
2019-03-23T02:32:37.551Z,7.03
2019-03-23T02:35:07.688Z,5.60
2019-03-23T02:37:38.150Z,6.10
2019-03-23T02:40:08.045Z,5.53
2019-03-23T02:42:38.419Z,5.23
2019-03-23T02:45:08.718Z,6.77
2019-03-23T02:47:38.251Z,5.47
2019-03-23T02:50:08.783Z,6.87
2019-03-23T02:52:38.813Z,6.43
2019-03-23T02:55:08.555Z,6.13
2019-03-23T02:57:38.167Z,5.23
2019-03-23T03:00:08.329Z,4.30
2019-03-23T03:02:38.935Z,6.20
2019-03-23T03:05:09.191Z,5.90
2019-03-23T03:07:42.471Z,6.10
2019-03-23T03:10:10.695Z,5.23
2019-03-23T03:12:40.794Z,5.70
2019-03-23T03:15:10.407Z,7.00
2019-03-23T03:17:40.137Z,6.13
2019-03-23T03:20:10.244Z,6.00
2019-03-23T03:22:39.846Z,5.70
2019-03-23T03:25:09.476Z,7.70
2019-03-23T03:27:39.103Z,5.53
2019-03-23T03:30:09.703Z,5.33
2019-03-23T03:32:39.344Z,5.23
2019-03-23T03:35:09.013Z,7.83
2019-03-23T03:37:39.275Z,4.83
2019-03-23T03:40:08.917Z,4.57
2019-03-23T03:42:38.627Z,3.70
2019-03-23T03:45:08.398Z,4.33
2019-03-23T03:47:41.019Z,3.90
2019-03-23T03:50:09.792Z,4.27
2019-03-23T03:52:39.393Z,5.00
2019-03-23T03:55:08.919Z,4.40
2019-03-23T03:57:38.672Z,3.63
2019-03-23T04:00:08.375Z,5.53
2019-03-23T04:02:37.970Z,3.30
2019-03-23T04:05:08.647Z,5.13
2019-03-23T04:07:38.247Z,4.77
2019-03-23T04:10:08.526Z,4.53
2019-03-23T04:12:38.682Z,5.63
2019-03-23T04:15:08.421Z,4.07
2019-03-23T04:17:38.164Z,5.17
2019-03-23T04:20:08.040Z,6.47
2019-03-23T04:22:37.642Z,4.13
2019-03-23T04:25:07.784Z,5.67
2019-03-23T04:27:37.491Z,5.43
2019-03-23T04:30:07.935Z,4.70
2019-03-23T04:32:37.547Z,5.27
2019-03-23T04:35:08.222Z,5.03
2019-03-23T04:37:37.991Z,5.50
2019-03-23T04:40:08.738Z,4.33
2019-03-23T04:42:39.211Z,4.80
2019-03-23T04:45:10.812Z,6.60
2019-03-23T04:47:40.371Z,5.03
2019-03-23T04:50:10.225Z,8.53
2019-03-23T04:52:39.822Z,5.77
2019-03-23T04:55:10.845Z,4.97
2019-03-23T04:57:40.919Z,4.37
2019-03-23T05:00:11.328Z,4.90
2019-03-23T05:02:41.092Z,4.13
2019-03-23T05:05:11.196Z,4.47
2019-03-23T05:07:41.990Z,4.93
2019-03-23T05:10:11.799Z,4.27
2019-03-23T05:12:42.155Z,4.17
2019-03-23T05:15:11.874Z,5.57
2019-03-23T05:17:41.450Z,5.50
2019-03-23T05:20:11.891Z,6.67
2019-03-23T05:22:41.477Z,4.67
2019-03-23T05:25:23.072Z,4.77
2019-03-23T05:27:52.619Z,4.47
2019-03-23T05:30:22.258Z,5.13
2019-03-23T05:32:53.234Z,5.57
2019-03-23T05:35:23.226Z,3.93
2019-03-23T05:37:53.213Z,4.07
2019-03-23T05:40:23.181Z,4.60
2019-03-23T05:42:52.752Z,4.40
2019-03-23T05:45:22.325Z,4.27
2019-03-23T05:47:52.621Z,4.30
2019-03-23T05:50:22.091Z,3.63
2019-03-23T05:52:51.616Z,5.50
2019-03-23T05:55:21.319Z,5.03
2019-03-23T05:57:50.882Z,5.03
2019-03-23T06:00:21.345Z,6.07
2019-03-23T06:02:51.474Z,4.80
2019-03-23T06:05:20.981Z,4.03
2019-03-23T06:07:50.578Z,4.73
2019-03-23T06:10:20.219Z,6.50
2019-03-23T06:12:49.826Z,4.27
2019-03-23T06:15:19.409Z,4.77
2019-03-23T06:17:49.739Z,4.70
2019-03-23T06:20:19.310Z,4.97
2019-03-23T06:22:48.917Z,4.77
2019-03-23T06:25:18.673Z,5.90
2019-03-23T06:27:48.258Z,3.63
2019-03-23T06:30:17.835Z,6.27
2019-03-23T06:32:47.487Z,7.23
2019-03-23T06:35:17.466Z,6.20
2019-03-23T06:37:47.403Z,4.67
2019-03-23T06:40:17.535Z,5.37
2019-03-23T06:42:47.119Z,5.10
2019-03-23T06:45:16.695Z,5.10
2019-03-23T06:47:46.875Z,5.97
2019-03-23T06:50:16.539Z,8.90
2019-03-23T06:52:46.214Z,6.47
2019-03-23T06:55:16.712Z,6.30
2019-03-23T06:57:46.219Z,8.93
2019-03-23T07:00:15.886Z,8.17
2019-03-23T07:02:46.021Z,6.67
2019-03-23T07:05:15.603Z,8.93
2019-03-23T07:07:45.174Z,6.90
2019-03-23T07:10:14.820Z,8.17
2019-03-23T07:12:44.402Z,8.37
2019-03-23T07:15:19.776Z,9.07
2019-03-23T07:17:45.818Z,7.03
2019-03-23T07:20:15.535Z,10.83
2019-03-23T07:22:45.114Z,9.07
2019-03-23T07:25:14.950Z,10.37
2019-03-23T07:27:44.516Z,8.90
2019-03-23T07:30:14.980Z,9.60
2019-03-23T07:32:44.594Z,11.63
2019-03-23T07:35:14.235Z,9.30
2019-03-23T07:37:44.391Z,9.27
2019-03-23T07:40:14.429Z,14.40
2019-03-23T07:42:43.933Z,10.90
2019-03-23T07:45:13.575Z,10.50
2019-03-23T07:47:46.011Z,11.73
2019-03-23T07:50:15.600Z,13.47
2019-03-23T07:52:45.369Z,10.10
2019-03-23T07:55:15.945Z,10.50
2019-03-23T07:57:45.696Z,12.23
2019-03-23T08:00:17.277Z,10.83
2019-03-23T08:02:47.330Z,11.83
2019-03-23T08:05:16.840Z,13.93
2019-03-23T08:07:46.435Z,12.27
2019-03-23T08:10:27.909Z,10.80
2019-03-23T08:12:57.569Z,10.43
2019-03-23T08:15:27.226Z,12.30
2019-03-23T08:17:57.256Z,12.50
2019-03-23T08:20:26.851Z,13.73
2019-03-23T08:22:56.441Z,12.23
2019-03-23T08:25:26.387Z,12.63
2019-03-23T08:27:56.283Z,11.97
2019-03-23T08:30:25.799Z,17.47
2019-03-23T08:32:55.362Z,17.77
2019-03-23T08:35:24.951Z,20.87
2019-03-23T08:37:55.179Z,19.30
2019-03-23T08:40:26.193Z,17.03
2019-03-23T08:42:55.689Z,14.67
2019-03-23T08:45:25.279Z,13.70
2019-03-23T08:47:55.298Z,15.83
2019-03-23T08:50:24.827Z,14.07
2019-03-23T08:52:54.321Z,12.27
2019-03-23T08:55:24.127Z,12.23
2019-03-23T08:57:53.762Z,11.23
2019-03-23T09:00:23.531Z,9.97
2019-03-23T09:02:53.545Z,8.57
2019-03-23T09:05:23.124Z,9.87
2019-03-23T09:07:52.777Z,8.13
2019-03-23T09:10:22.520Z,6.67
2019-03-23T09:12:52.023Z,6.03
2019-03-23T09:15:21.603Z,6.93
2019-03-23T09:17:51.490Z,6.63
2019-03-23T09:20:21.066Z,6.27
2019-03-23T09:22:50.631Z,6.60
2019-03-23T09:25:20.269Z,6.07
2019-03-23T09:27:49.703Z,5.63
2019-03-23T09:30:19.284Z,4.67
2019-03-23T09:32:50.396Z,6.53
2019-03-23T09:35:19.963Z,5.03
2019-03-23T09:37:49.713Z,6.70
2019-03-23T09:40:20.411Z,5.30
2019-03-23T09:42:49.913Z,6.73
2019-03-23T09:45:19.498Z,5.30
2019-03-23T09:47:49.236Z,4.67
2019-03-23T09:50:18.730Z,3.50
2019-03-23T09:52:48.149Z,5.67
2019-03-23T09:55:18.062Z,4.27
2019-03-23T09:57:47.607Z,5.77
2019-03-23T10:00:17.182Z,4.23
2019-03-23T10:02:46.938Z,4.20
2019-03-23T10:05:16.518Z,10.43
2019-03-23T10:07:46.156Z,15.47
2019-03-23T10:10:21.674Z,12.27
2019-03-23T10:12:47.080Z,16.17
2019-03-23T10:15:16.646Z,12.73
2019-03-23T10:17:46.450Z,14.50
2019-03-23T10:20:16.026Z,9.43
2019-03-23T10:22:45.606Z,5.97
2019-03-23T10:25:15.582Z,5.33
2019-03-23T10:27:45.154Z,9.90
2019-03-23T10:30:14.726Z,5.37
2019-03-23T10:32:44.713Z,8.10
2019-03-23T10:35:14.290Z,11.07
2019-03-23T10:37:44.389Z,7.97
2019-03-23T10:40:14.705Z,4.33
2019-03-23T10:42:44.287Z,6.03
2019-03-23T10:45:13.860Z,4.23
2019-03-23T10:47:44.289Z,4.37
2019-03-23T10:50:13.887Z,4.47
2019-03-23T10:52:43.455Z,5.13
2019-03-23T10:55:13.123Z,5.27
2019-03-23T10:57:42.948Z,4.97
2019-03-23T11:00:13.191Z,6.10
2019-03-23T11:02:42.813Z,3.73
2019-03-23T11:05:12.351Z,4.83
2019-03-23T11:07:41.938Z,4.43
2019-03-23T11:10:11.620Z,3.03
2019-03-23T11:12:41.129Z,4.20
2019-03-23T11:15:10.721Z,3.43
2019-03-23T11:17:41.007Z,5.37
2019-03-23T11:20:10.558Z,4.83
2019-03-23T11:22:40.134Z,5.87
2019-03-23T11:25:10.138Z,4.83
2019-03-23T11:27:39.746Z,7.77
2019-03-23T11:30:09.518Z,5.20
2019-03-23T11:32:39.573Z,4.93
2019-03-23T11:35:09.178Z,4.43
2019-03-23T11:37:39.034Z,4.93
2019-03-23T11:40:09.090Z,6.10
2019-03-23T11:42:49.296Z,5.50
2019-03-23T11:45:11.989Z,5.17
2019-03-23T11:47:42.126Z,6.33
2019-03-23T11:50:11.662Z,4.57
2019-03-23T11:52:41.243Z,4.70
2019-03-23T11:55:10.750Z,8.23
2019-03-23T11:57:40.359Z,5.07
2019-03-23T12:00:12.261Z,4.77
2019-03-23T12:02:42.288Z,6.70
2019-03-23T12:05:11.860Z,5.17
2019-03-23T12:07:41.457Z,4.67
2019-03-23T12:10:11.634Z,7.57
2019-03-23T12:12:41.311Z,5.50
2019-03-23T12:15:11.949Z,6.83
2019-03-23T12:17:42.006Z,4.63
2019-03-23T12:20:11.919Z,5.30
2019-03-23T12:22:41.494Z,8.60
2019-03-23T12:25:11.442Z,8.70
2019-03-23T12:27:40.950Z,14.43
2019-03-23T12:30:12.346Z,4.50
2019-03-23T12:32:41.942Z,4.27
2019-03-23T12:35:11.518Z,8.40
2019-03-23T12:37:41.091Z,6.13
2019-03-23T12:40:10.844Z,3.80
2019-03-23T12:42:41.686Z,5.90
2019-03-23T12:45:11.217Z,7.13
2019-03-23T12:47:41.273Z,5.77
2019-03-23T12:50:10.896Z,7.73
2019-03-23T12:52:40.463Z,4.10
2019-03-23T12:55:10.058Z,3.90
2019-03-23T12:57:39.735Z,5.27
2019-03-23T13:00:13.401Z,5.00
2019-03-23T13:02:42.989Z,7.30
2019-03-23T13:05:12.563Z,5.33
2019-03-23T13:07:42.157Z,3.83
2019-03-23T13:10:11.899Z,7.57
2019-03-23T13:12:41.478Z,5.17
2019-03-23T13:15:11.428Z,4.00
2019-03-23T13:17:41.039Z,5.10
2019-03-23T13:20:10.693Z,2.30
2019-03-23T13:22:40.792Z,2.57
2019-03-23T13:25:10.378Z,4.60
2019-03-23T13:27:42.047Z,3.77
2019-03-23T13:30:12.683Z,3.57
2019-03-23T13:32:42.139Z,3.07
2019-03-23T13:35:11.809Z,5.73
2019-03-23T13:37:41.426Z,5.10
2019-03-23T13:40:11.577Z,2.70
2019-03-23T13:42:41.515Z,3.20
2019-03-23T13:45:11.838Z,4.97
2019-03-23T13:47:41.472Z,3.83
2019-03-23T13:50:11.462Z,5.50
2019-03-23T13:52:41.282Z,2.43
2019-03-23T13:55:23.842Z,2.80
2019-03-23T13:57:53.373Z,2.90
2019-03-23T14:00:22.878Z,2.97
2019-03-23T14:02:52.449Z,4.90
2019-03-23T14:05:22.534Z,1.70
2019-03-23T14:07:52.106Z,3.90
2019-03-23T14:10:21.694Z,3.43
2019-03-23T14:12:51.965Z,3.00
2019-03-23T14:15:21.537Z,2.33
2019-03-23T14:17:51.127Z,2.33
2019-03-23T14:20:21.553Z,2.83
2019-03-23T14:22:51.130Z,2.93
2019-03-23T14:25:20.710Z,7.23
2019-03-23T14:27:50.834Z,1.53
2019-03-23T14:30:20.437Z,2.60
2019-03-23T14:32:49.935Z,2.93
2019-03-23T14:35:19.676Z,5.77
2019-03-23T14:37:49.262Z,5.80
2019-03-23T14:40:19.027Z,10.17
2019-03-23T14:42:49.039Z,2.07
2019-03-23T14:45:18.664Z,9.07
2019-03-23T14:47:48.336Z,4.17
2019-03-23T14:50:18.511Z,5.50
2019-03-23T14:52:48.018Z,3.47
2019-03-23T14:55:17.585Z,6.57
2019-03-23T14:57:47.194Z,4.73
2019-03-23T15:00:25.503Z,4.97
2019-03-23T15:02:55.330Z,5.17
2019-03-23T15:05:25.037Z,4.83
2019-03-23T15:07:54.589Z,4.60
2019-03-23T15:10:24.151Z,4.70
2019-03-23T15:12:53.862Z,8.37
2019-03-23T15:15:23.462Z,5.13
2019-03-23T15:17:53.436Z,5.83
2019-03-23T15:20:22.999Z,4.43
2019-03-23T15:22:52.578Z,4.83
2019-03-23T15:25:22.163Z,6.73
2019-03-23T15:27:51.745Z,6.10
2019-03-23T15:30:21.333Z,5.67
2019-03-23T15:32:51.245Z,4.67
2019-03-23T15:35:20.830Z,5.97
2019-03-23T15:37:50.329Z,4.20
2019-03-23T15:40:20.826Z,5.00
2019-03-23T15:42:50.497Z,6.37
2019-03-23T15:45:21.961Z,8.23
2019-03-23T15:47:51.737Z,6.33
2019-03-23T15:50:21.327Z,13.13
2019-03-23T15:52:50.914Z,7.30
2019-03-23T15:55:20.570Z,4.40
2019-03-23T15:57:50.143Z,7.20
2019-03-23T16:00:19.722Z,4.97
2019-03-23T16:02:50.007Z,5.77
2019-03-23T16:05:19.590Z,8.30
2019-03-23T16:07:49.098Z,4.97
2019-03-23T16:10:18.622Z,4.93
2019-03-23T16:12:48.113Z,4.17
2019-03-23T16:15:17.698Z,6.73
2019-03-23T16:17:47.643Z,5.97
2019-03-23T16:20:17.149Z,6.10
2019-03-23T16:22:46.722Z,8.33
2019-03-23T16:25:16.329Z,7.37
2019-03-23T16:27:45.906Z,7.60
2019-03-23T16:30:19.035Z,8.37
2019-03-23T16:32:49.280Z,4.40
2019-03-23T16:35:18.785Z,10.90
2019-03-23T16:37:48.377Z,10.00
2019-03-23T16:40:18.002Z,10.60
2019-03-23T16:42:47.875Z,6.80
2019-03-23T16:45:18.094Z,4.53
2019-03-23T16:47:47.709Z,8.87
2019-03-23T16:50:17.294Z,13.30
2019-03-23T16:52:46.886Z,11.40
2019-03-23T16:55:16.450Z,6.63
2019-03-23T16:57:46.186Z,6.17
2019-03-23T17:00:16.078Z,8.67
2019-03-23T17:02:46.093Z,6.97
2019-03-23T17:05:15.607Z,4.00
2019-03-23T17:07:45.194Z,5.53
2019-03-23T17:10:14.916Z,6.83
2019-03-23T17:12:44.502Z,7.03
2019-03-23T17:15:13.989Z,5.47
2019-03-23T17:17:44.351Z,7.23
2019-03-23T17:20:13.867Z,8.90
2019-03-23T17:22:43.450Z,7.30
2019-03-23T17:25:13.782Z,5.93
2019-03-23T17:27:43.365Z,5.33
2019-03-23T17:30:12.866Z,8.67
2019-03-23T17:32:42.906Z,5.50
2019-03-23T17:35:12.398Z,9.90
2019-03-23T17:37:41.985Z,15.33
2019-03-23T17:40:11.557Z,7.53
2019-03-23T17:42:41.453Z,16.70
2019-03-23T17:45:11.715Z,8.13
2019-03-23T17:47:42.150Z,8.67
2019-03-23T17:50:11.911Z,14.87
2019-03-23T17:52:41.499Z,13.30
2019-03-23T17:55:11.250Z,14.70
2019-03-23T17:57:40.823Z,11.67
2019-03-23T18:00:10.547Z,17.90
2019-03-23T18:02:40.397Z,14.30
2019-03-23T18:05:12.045Z,12.30
2019-03-23T18:07:41.294Z,12.90
2019-03-23T18:10:11.046Z,13.90
2019-03-23T18:12:40.817Z,13.00
2019-03-23T18:15:10.322Z,12.90
2019-03-23T18:17:40.443Z,17.03
2019-03-23T18:20:10.110Z,19.37
2019-03-23T18:22:41.498Z,31.57
2019-03-23T18:25:11.953Z,30.67
2019-03-23T18:27:41.403Z,27.03
2019-03-23T18:30:36.721Z,27.43
2019-03-23T18:33:06.477Z,31.03
2019-03-23T18:35:35.988Z,24.10
2019-03-23T18:38:05.665Z,22.50
2019-03-23T18:40:36.196Z,23.43
2019-03-23T18:43:06.417Z,25.90
2019-03-23T18:45:37.143Z,24.13
2019-03-23T18:48:06.909Z,20.77
2019-03-23T18:50:36.481Z,22.87
2019-03-23T18:53:06.402Z,21.83
2019-03-23T18:55:35.986Z,18.37
2019-03-23T18:58:05.505Z,18.27
2019-03-23T19:00:39.691Z,17.57
2019-03-23T19:03:10.950Z,15.20
2019-03-23T19:05:40.799Z,13.80
2019-03-23T19:08:11.896Z,13.63
2019-03-23T19:10:41.831Z,13.27
2019-03-23T19:13:11.706Z,13.47
2019-03-23T19:15:41.290Z,11.60
2019-03-23T19:18:10.950Z,15.93
2019-03-23T19:20:40.625Z,12.90
2019-03-23T19:23:10.202Z,13.70
2019-03-23T19:25:39.874Z,12.03
2019-03-23T19:28:09.975Z,12.77
2019-03-23T19:30:39.604Z,11.17
2019-03-23T19:33:09.233Z,10.23
2019-03-23T19:35:39.085Z,13.60
2019-03-23T19:38:08.581Z,14.00
2019-03-23T19:40:38.289Z,11.40
2019-03-23T19:43:07.836Z,12.83
2019-03-23T19:45:37.604Z,8.43
2019-03-23T19:48:07.199Z,10.33
2019-03-23T19:50:37.031Z,12.10
2019-03-23T19:53:06.608Z,8.77
2019-03-23T19:55:36.196Z,9.40
2019-03-23T19:58:05.888Z,8.23
2019-03-23T20:00:35.465Z,8.60
2019-03-23T20:03:05.055Z,11.17
2019-03-23T20:05:35.051Z,8.43
2019-03-23T20:08:05.106Z,12.27
2019-03-23T20:10:34.703Z,10.57
2019-03-23T20:13:04.315Z,5.40
2019-03-23T20:15:33.902Z,12.70
2019-03-23T20:18:03.400Z,7.30
2019-03-23T20:20:33.118Z,9.47
2019-03-23T20:23:02.761Z,12.30
2019-03-23T20:25:32.295Z,6.97
2019-03-23T20:28:01.838Z,9.57
2019-03-23T20:30:31.418Z,10.63
2019-03-23T20:33:01.010Z,7.27
2019-03-23T20:35:30.892Z,7.73
2019-03-23T20:38:00.475Z,7.87
2019-03-23T20:40:30.242Z,9.43
2019-03-23T20:42:59.950Z,11.37
2019-03-23T20:45:32.891Z,7.20
2019-03-23T20:48:03.157Z,5.83
2019-03-23T20:50:33.740Z,11.33
2019-03-23T20:53:03.632Z,10.30
2019-03-23T20:55:33.233Z,8.87
2019-03-23T20:58:02.893Z,7.07
2019-03-23T21:00:32.557Z,10.83
2019-03-23T21:03:02.311Z,9.23
2019-03-23T21:05:34.300Z,4.90
2019-03-23T21:08:04.275Z,8.07
2019-03-23T21:10:34.020Z,10.23
2019-03-23T21:13:03.880Z,6.90
2019-03-23T21:15:33.464Z,5.57
2019-03-23T21:18:02.977Z,5.20
2019-03-23T21:20:32.524Z,6.27
2019-03-23T21:23:02.099Z,6.80
2019-03-23T21:25:31.690Z,5.17
2019-03-23T21:28:01.827Z,4.40
2019-03-23T21:30:31.430Z,14.67
2019-03-23T21:33:01.014Z,6.27
2019-03-23T21:35:30.893Z,6.13
2019-03-23T21:38:00.496Z,7.03
2019-03-23T21:40:30.209Z,7.20
2019-03-23T21:42:59.730Z,8.77
2019-03-23T21:45:29.456Z,5.40
2019-03-23T21:47:59.255Z,4.10
2019-03-23T21:50:29.010Z,6.10
2019-03-23T21:52:58.589Z,10.43
2019-03-23T21:55:28.191Z,5.13
2019-03-23T21:57:57.705Z,5.37
2019-03-23T22:00:34.545Z,5.53
2019-03-23T22:03:04.582Z,5.07
2019-03-23T22:05:34.170Z,7.37
2019-03-23T22:08:03.754Z,4.20
2019-03-23T22:10:33.371Z,4.10
2019-03-23T22:13:02.969Z,7.20
2019-03-23T22:15:33.946Z,5.67
2019-03-23T22:18:03.943Z,5.27
2019-03-23T22:20:33.555Z,4.23
2019-03-23T22:23:03.322Z,3.80
2019-03-23T22:25:33.005Z,7.43
2019-03-23T22:28:02.595Z,13.60
2019-03-23T22:30:32.178Z,4.03
2019-03-23T22:33:02.186Z,6.47
2019-03-23T22:35:31.987Z,5.30
2019-03-23T22:38:01.570Z,8.50
2019-03-23T22:40:31.178Z,4.80
2019-03-23T22:43:00.854Z,5.10
2019-03-23T22:45:30.650Z,9.67
2019-03-23T22:48:01.088Z,3.67
2019-03-23T22:50:30.826Z,7.70
2019-03-23T22:53:00.666Z,5.90
2019-03-23T22:55:30.282Z,5.07
2019-03-23T22:57:59.939Z,6.33
2019-03-23T23:00:42.039Z,4.93
2019-03-23T23:03:12.330Z,4.27
2019-03-23T23:05:41.967Z,2.50
2019-03-23T23:08:11.630Z,7.93
2019-03-23T23:10:41.297Z,5.97
2019-03-23T23:13:10.962Z,4.00
2019-03-23T23:15:40.589Z,4.30
2019-03-23T23:18:10.248Z,3.00
2019-03-23T23:20:39.747Z,8.27
2019-03-23T23:23:09.286Z,5.03
2019-03-23T23:25:38.793Z,3.73
2019-03-23T23:28:08.367Z,6.87
2019-03-23T23:30:39.377Z,6.13
2019-03-23T23:33:08.943Z,4.20
2019-03-23T23:35:38.680Z,12.30
2019-03-23T23:38:08.298Z,5.47
2019-03-23T23:40:37.814Z,4.57
2019-03-23T23:43:07.411Z,5.47
2019-03-23T23:45:36.949Z,8.23
2019-03-23T23:48:06.813Z,4.77
2019-03-23T23:50:36.656Z,2.60
2019-03-23T23:53:06.289Z,6.43
2019-03-23T23:55:35.862Z,3.87
2019-03-23T23:58:05.495Z,5.17
